weather.gov     
National Weather Service

Terminal Aerodrome Forecast
NWS Homepage
This page is being discontinued on March 12, 2014.
The same data is available at this site. Please update your bookmarks.
Thank you, and we apologize for the inconvenience.
Please send an email to SR-SRH.Webmaster@noaa.gov with any concerns.


Current Version
Previous Version:    01  02  03  04  05  06  07  08  09  10  11  12  13  14  15  16  17  18  19  20  21  22  23  24  25  26  27  28  29  30  
   31  32  33  34  35  
[Printable]
689
FTAK31 PAJN 291100 RRA
TAFAPG
TAF
PAPG 291142Z 2912/3012 14006KT P6SM -SHRA SCT020 BKN040 OVC060
      TEMPO 2912/2916 14008G18KT
     FM291800 12005KT 6SM -SHRA BR SCT015 BKN025 OVC035
     FM292100 06005KT P6SM -SHRA SCT025 OVC050
     FM300300 VRB03KT P6SM -SHRA BKN020 OVC040
     FM300900 00000KT P6SM -SHRA SCT025 OVC050
      AMD LTD TO CLD VIS AND WIND 2912/2915=


U.S. Dept. of Commerce
NOAA National Weather Service
1325 East West Highway
Silver Spring, MD 20910
E-mail: w-nws.webmaster@noaa.gov
Page last modified: May 16, 2007
NATIONAL WEATHER SERVICE: for Safety, for Work, for Fun - FOR LIFE